Nearby METAR Reports

 

KKLS - Kelso Longveiw, Washington, USA
Distance from station: ESE 7mi, 11km
Updated: 2018-02-22 12:29
Overcast
Overcast
 Wind from N
Wind: N 9 mph , 15 km/h
Temperature: 36°F , 2°C
Wind Chill: 29°F , -2°C
Dew Point: 27°F , -3°C
Humidity: 70%
Barometer: 1027.1 hPa
Clouds: Overcast
Visibility: 10 miles , 16 km
Cloud details: Mostly cloudy 2400 ft
Overcast 5000 ft
2018/02/22 20:29 KKLS 222029Z AUTO 35008KT 10SM BKN024 OVC050 02/M03 A3033 RMK AO2 FZRANO
KSPB - Scappoose, Oregon, USA
Distance from station: SSE 29mi, 46km
Updated: 2018-02-22 11:53
Overcast
Overcast
 Wind from NNW
Wind: NNW 9 mph , 15 km/h
Temperature: 34°F , 1°C
Wind Chill: 27°F , -3°C
Dew Point: 28°F , -2°C
Humidity: 81%
Barometer: 1026.1 hPa
Clouds: Overcast
Visibility: 10 miles , 16 km
Cloud details: Overcast 4100 ft
2018/02/22 19:53 KSPB 221953Z AUTO 34008KT 10SM OVC041 01/M02 A3030 RMK AO2 SLP262 T00111022
 
KCLS - Chehalis Central, Washington, USA
Distance from station: N 36mi, 58km
Updated: 2018-02-22 12:35
Partly cloudy
Partly cloudy
 Wind from NNE
Wind: NNE 9 mph , 15 km/h
Temperature: 37°F , 3°C
Wind Chill: 30°F , -1°C
Dew Point: 23°F , -5°C
Humidity: 56%
Barometer: 1027.1 hPa
Clouds: Partly cloudy
Visibility: 10 miles , 16 km
Cloud details: Partly cloudy 3600 ft
Partly cloudy 4400 ft
2018/02/22 20:35 KCLS 222035Z AUTO 03008KT 10SM SCT036 SCT044 03/M05 A3033 RMK AO2
KAST - Astoria, Oregon, USA
Distance from station: W 41mi, 66km
Updated: 2018-02-22 11:55
Clear
Clear
 Wind from NE
Wind: NE 12 mph , 19 km/h
Temperature: 37°F , 3°C
Wind Chill: 29°F , -2°C
Dew Point: 21°F , -6°C
Humidity: 52%
Barometer: 1026.8 hPa
Clouds: Clear
Visibility: 10 miles , 16 km
2018/02/22 19:55 KAST 221955Z AUTO 05010KT 10SM CLR 03/M06 A3032 RMK AO2 SLP267 T00331056
 
KVUO - Vancouver, Washington, USA
Distance from station: SSE 42mi, 68km
Updated: 2018-02-22 12:01
Overcast
Overcast
 Wind from W
Wind: W 5 mph , 7 km/h
Temperature: 34°F , 1°C
Wind Chill: 29°F , -2°C
Dew Point: 30°F , -1°C
Humidity: 87%
Barometer: 1026.1 hPa
Clouds: Overcast
Visibility: 10 miles , 16 km
Cloud details: Overcast 3100 ft
2018/02/22 20:01 KVUO 222001Z AUTO 26004KT 10SM OVC031 01/M01 A3030 RMK AO2 T00111006
KHIO - Hillsboro/Portld, Oregon, USA
Distance from station: S 43mi, 69km
Updated: 2018-02-22 12:14
Overcast
Overcast
 Wind from N
Wind: N 6 mph , 9 km/h
Temperature: 36°F , 2°C
Wind Chill: 31°F , -1°C
Dew Point: 28°F , -2°C
Humidity: 75%
Barometer: 1025.7 hPa
Clouds: Overcast
Visibility: 10 miles , 16 km
Cloud details: Partly cloudy 2200 ft
Overcast 4900 ft
2018/02/22 20:14 KHIO 222014Z 36005KT 10SM SCT022 OVC049 02/M02 A3029 RMK AO2 T00221017
 
KPDX - Portland, Oregon, USA
Distance from station: SSE 44mi, 70km
Updated: 2018-02-22 11:53
Mostly cloudy
Mostly cloudy
 Wind from WNW
Wind: WNW 7 mph , 11 km/h
Temperature: 36°F , 2°C
Wind Chill: 30°F , -1°C
Dew Point: 30°F , -1°C
Humidity: 81%
Barometer: 1026.1 hPa
Clouds: Mostly cloudy
Visibility: 10 miles , 16 km
Cloud details: Partly cloudy 2500 ft
Mostly cloudy 3600 ft
Mostly cloudy 7000 ft
2018/02/22 19:53 KPDX 221953Z 29006KT 10SM SCT025 BKN036 BKN070 02/M01 A3030 RMK AO2 SLP261 T00171011